createdAt,value
2022-07-28T00:01:35.572Z,22.90
2022-07-28T00:04:57.745Z,22.90
2022-07-28T00:08:19.809Z,23.20
2022-07-28T00:11:54.726Z,23.30
2022-07-28T00:15:17.096Z,23.40
2022-07-28T00:18:39.497Z,23.60
2022-07-28T00:22:02.688Z,23.70
2022-07-28T00:25:24.840Z,23.60
2022-07-28T00:28:48.184Z,23.40
2022-07-28T00:32:10.414Z,23.30
2022-07-28T00:35:32.513Z,23.30
2022-07-28T00:38:54.752Z,23.30
2022-07-28T00:42:19.214Z,23.40
2022-07-28T00:45:41.347Z,23.30
2022-07-28T00:49:04.524Z,23.30
2022-07-28T00:52:27.404Z,23.10
2022-07-28T00:56:05.472Z,23.20
2022-07-28T00:59:28.763Z,23.10
2022-07-28T01:02:50.946Z,23.00
2022-07-28T01:06:31.769Z,22.80
2022-07-28T01:10:20.001Z,22.80
2022-07-28T01:14:16.512Z,22.70
2022-07-28T01:17:50.723Z,22.60
2022-07-28T01:21:16.743Z,22.50
2022-07-28T01:25:06.796Z,22.50
2022-07-28T01:28:31.897Z,22.50
2022-07-28T01:32:03.177Z,22.40
2022-07-28T01:35:30.591Z,22.20
2022-07-28T01:38:53.476Z,22.20
2022-07-28T01:42:17.784Z,22.10
2022-07-28T01:45:41.264Z,22.00
2022-07-28T01:49:04.012Z,21.80
2022-07-28T01:52:27.293Z,21.70
2022-07-28T01:55:51.126Z,21.70
2022-07-28T01:59:14.119Z,21.60
2022-07-28T02:02:38.743Z,21.60
2022-07-28T02:06:04.690Z,21.60
2022-07-28T02:09:28.810Z,21.50
2022-07-28T02:12:53.115Z,21.40
2022-07-28T02:16:17.431Z,21.20
2022-07-28T02:19:42.599Z,21.10
2022-07-28T02:23:05.259Z,21.00
2022-07-28T02:26:31.277Z,21.00
2022-07-28T02:30:07.418Z,20.90
2022-07-28T02:33:58.466Z,20.90
2022-07-28T02:37:15.482Z,20.90
2022-07-28T02:40:39.672Z,20.90
2022-07-28T02:44:11.983Z,20.90
2022-07-28T02:47:40.650Z,20.90
2022-07-28T02:51:03.606Z,20.90
2022-07-28T02:54:27.959Z,21.00
2022-07-28T02:57:54.757Z,21.00
2022-07-28T03:01:20.690Z,21.00
2022-07-28T03:05:02.997Z,20.90
2022-07-28T03:08:29.620Z,20.90
2022-07-28T03:11:53.033Z,20.90
2022-07-28T03:15:15.726Z,20.80
2022-07-28T03:18:38.017Z,20.80
2022-07-28T03:22:01.661Z,20.70
2022-07-28T03:25:46.823Z,20.70
2022-07-28T03:29:10.874Z,20.70
2022-07-28T03:32:37.175Z,20.70
2022-07-28T03:36:02.469Z,20.70
2022-07-28T03:39:26.039Z,20.80
2022-07-28T03:42:56.286Z,20.70
2022-07-28T03:46:18.633Z,20.70
2022-07-28T03:49:40.951Z,20.70
2022-07-28T03:53:03.255Z,20.70
2022-07-28T03:56:25.738Z,20.70
2022-07-28T03:59:47.821Z,20.80
2022-07-28T04:03:34.972Z,20.70
2022-07-28T04:06:51.894Z,20.70
2022-07-28T04:10:17.099Z,20.80
2022-07-28T04:13:39.133Z,20.80
2022-07-28T04:17:01.349Z,20.80
2022-07-28T04:20:25.711Z,20.90
2022-07-28T04:23:47.717Z,20.90
2022-07-28T04:27:10.939Z,20.90
2022-07-28T04:30:33.057Z,21.00
2022-07-28T04:33:55.106Z,21.10
2022-07-28T04:37:17.175Z,21.20
2022-07-28T04:40:39.528Z,21.20
2022-07-28T04:44:01.649Z,21.30
2022-07-28T04:47:24.715Z,21.40
2022-07-28T04:50:46.864Z,21.50
2022-07-28T04:54:08.843Z,21.70
2022-07-28T04:57:30.939Z,21.90
2022-07-28T05:00:53.554Z,22.20
2022-07-28T05:04:16.513Z,22.60
2022-07-28T05:07:39.543Z,22.90
2022-07-28T05:11:01.623Z,23.30
2022-07-28T05:14:23.736Z,24.00
2022-07-28T05:17:46.006Z,24.80
2022-07-28T05:21:08.016Z,25.80
2022-07-28T05:24:30.137Z,26.60
2022-07-28T05:27:52.977Z,27.20
2022-07-28T05:31:15.251Z,27.70
2022-07-28T05:34:37.360Z,28.10
2022-07-28T05:37:59.475Z,28.90
2022-07-28T05:41:21.435Z,29.90
2022-07-28T05:44:43.451Z,31.30
2022-07-28T05:48:05.739Z,31.60
2022-07-28T05:51:27.781Z,32.00
2022-07-28T05:54:49.968Z,32.40
2022-07-28T05:58:12.555Z,32.00
2022-07-28T06:01:39.034Z,32.00
2022-07-28T06:05:01.620Z,32.50
2022-07-28T06:08:27.460Z,32.30
2022-07-28T06:11:50.983Z,32.80
2022-07-28T06:15:25.850Z,32.50
2022-07-28T06:18:50.782Z,33.00
2022-07-28T06:22:15.438Z,32.30
2022-07-28T06:25:37.634Z,32.30
2022-07-28T06:28:59.675Z,32.50
2022-07-28T06:32:21.667Z,32.60
2022-07-28T06:35:47.888Z,32.10
2022-07-28T06:39:12.864Z,32.30
2022-07-28T06:42:34.925Z,32.90
2022-07-28T06:45:57.647Z,32.70
2022-07-28T06:49:22.939Z,32.60
2022-07-28T06:52:45.562Z,32.50
2022-07-28T06:56:07.623Z,32.40
2022-07-28T06:59:35.795Z,33.80
2022-07-28T07:03:04.196Z,33.30
2022-07-28T07:06:27.535Z,32.80
2022-07-28T07:09:51.055Z,33.00
2022-07-28T07:13:16.877Z,33.60
2022-07-28T07:16:41.644Z,34.10
2022-07-28T07:20:07.901Z,33.30
2022-07-28T07:23:30.141Z,33.50
2022-07-28T07:26:52.364Z,33.70
2022-07-28T07:30:17.000Z,33.00
2022-07-28T07:33:39.123Z,34.20
2022-07-28T07:37:01.201Z,34.10
2022-07-28T07:40:23.338Z,33.90
2022-07-28T07:43:47.853Z,34.30
2022-07-28T07:47:10.614Z,33.80
2022-07-28T07:50:32.621Z,33.50
2022-07-28T07:53:58.045Z,34.30
2022-07-28T07:57:20.042Z,34.30
2022-07-28T08:00:42.343Z,34.30
2022-07-28T08:04:04.748Z,34.50
2022-07-28T08:07:30.069Z,33.80
2022-07-28T08:10:52.186Z,34.10
2022-07-28T08:14:14.460Z,33.90
2022-07-28T08:17:36.846Z,33.90
2022-07-28T08:20:59.067Z,34.10
2022-07-28T08:24:32.308Z,34.80
2022-07-28T08:28:00.123Z,34.60
2022-07-28T08:31:25.007Z,35.20
2022-07-28T08:34:49.050Z,34.80
2022-07-28T08:38:15.388Z,34.50
2022-07-28T08:41:43.101Z,34.80
2022-07-28T08:45:07.762Z,35.00
2022-07-28T08:48:37.747Z,34.60
2022-07-28T08:52:01.435Z,34.70
2022-07-28T08:55:31.578Z,35.30
2022-07-28T08:58:55.834Z,35.30
2022-07-28T09:02:19.043Z,34.90
2022-07-28T09:05:43.368Z,34.90
2022-07-28T09:09:06.071Z,34.70
2022-07-28T09:12:28.332Z,35.30
2022-07-28T09:15:54.385Z,35.40
2022-07-28T09:19:20.001Z,35.10
2022-07-28T09:23:02.486Z,35.00
2022-07-28T09:26:31.385Z,35.70
2022-07-28T09:30:00.850Z,36.10
2022-07-28T09:33:41.246Z,35.00
2022-07-28T09:37:05.898Z,35.00
2022-07-28T09:40:28.074Z,35.30
2022-07-28T09:43:54.797Z,34.80
2022-07-28T09:47:24.004Z,35.70
2022-07-28T09:50:46.282Z,36.20
2022-07-28T09:54:13.977Z,36.80
2022-07-28T09:57:38.926Z,35.30
2022-07-28T10:01:08.882Z,34.90
2022-07-28T10:04:38.221Z,36.10
2022-07-28T10:08:00.275Z,35.90
2022-07-28T10:11:26.768Z,35.30
2022-07-28T10:14:51.932Z,35.10
2022-07-28T10:18:14.077Z,35.50
2022-07-28T10:21:46.490Z,35.40
2022-07-28T10:25:10.619Z,35.30
2022-07-28T10:28:39.290Z,34.60
2022-07-28T10:32:06.805Z,34.60
2022-07-28T10:35:29.801Z,35.00
2022-07-28T10:38:59.493Z,34.60
2022-07-28T10:42:21.535Z,35.40
2022-07-28T10:49:32.532Z,34.10
2022-07-28T10:52:59.204Z,34.30
2022-07-28T10:56:38.557Z,34.30
2022-07-28T11:00:25.605Z,34.80
2022-07-28T11:03:48.482Z,34.40
2022-07-28T11:07:12.880Z,34.70
2022-07-28T11:10:53.465Z,35.00
2022-07-28T11:14:26.993Z,35.00
2022-07-28T11:18:19.787Z,34.70
2022-07-28T11:22:18.912Z,34.90
2022-07-28T11:25:40.936Z,35.30
2022-07-28T11:29:08.140Z,35.30
2022-07-28T11:32:50.097Z,35.50
2022-07-28T11:36:12.124Z,35.10
2022-07-28T11:39:43.021Z,34.90
2022-07-28T11:43:35.442Z,34.70
2022-07-28T11:47:20.007Z,34.00
2022-07-28T11:50:42.793Z,34.30
2022-07-28T11:54:05.153Z,34.20
2022-07-28T11:57:28.540Z,34.40
2022-07-28T12:00:50.638Z,34.30
2022-07-28T12:04:14.705Z,34.50
2022-07-28T12:07:40.378Z,34.80
2022-07-28T12:11:02.436Z,34.70
2022-07-28T12:14:29.109Z,34.90
2022-07-28T12:17:51.561Z,34.70
2022-07-28T12:21:13.922Z,34.20
2022-07-28T12:24:45.840Z,34.40
2022-07-28T12:28:16.027Z,34.70
2022-07-28T12:31:38.415Z,34.40
2022-07-28T12:35:00.660Z,34.20
2022-07-28T12:38:25.145Z,33.80
2022-07-28T12:41:47.317Z,34.20
2022-07-28T12:45:10.343Z,34.40
2022-07-28T12:48:32.440Z,34.60
2022-07-28T12:51:54.563Z,33.90
2022-07-28T12:55:22.570Z,33.70
2022-07-28T12:58:44.705Z,33.50
2022-07-28T13:02:10.433Z,34.00
2022-07-28T13:05:57.923Z,34.70
2022-07-28T13:09:24.079Z,34.50
2022-07-28T13:13:06.156Z,34.70
2022-07-28T13:16:29.566Z,34.60
2022-07-28T13:20:04.124Z,34.70
2022-07-28T13:23:26.154Z,34.80
2022-07-28T13:26:48.237Z,34.50
2022-07-28T13:30:11.084Z,34.50
2022-07-28T13:33:33.234Z,34.30
2022-07-28T13:36:57.031Z,34.20
2022-07-28T13:40:19.006Z,34.20
2022-07-28T13:43:41.260Z,34.10
2022-07-28T13:47:10.328Z,34.00
2022-07-28T13:50:32.438Z,33.70
2022-07-28T13:53:54.907Z,33.60
2022-07-28T13:57:18.150Z,33.60
2022-07-28T14:00:44.578Z,33.80
2022-07-28T14:04:06.843Z,33.70
2022-07-28T14:07:29.054Z,33.90
2022-07-28T14:10:54.750Z,34.10
2022-07-28T14:14:19.963Z,33.80
2022-07-28T14:17:45.281Z,33.70
2022-07-28T14:21:09.251Z,33.60
2022-07-28T14:24:31.283Z,33.60
2022-07-28T14:27:54.629Z,33.40
2022-07-28T14:31:18.129Z,33.10
2022-07-28T14:34:41.264Z,33.00
2022-07-28T14:38:49.618Z,32.80
2022-07-28T14:41:47.329Z,32.90
2022-07-28T14:45:12.786Z,33.10
2022-07-28T14:48:34.884Z,33.50
2022-07-28T14:51:57.932Z,33.50
2022-07-28T14:55:20.553Z,33.30
2022-07-28T14:58:43.538Z,33.00
2022-07-28T15:02:07.021Z,32.50
2022-07-28T15:05:29.187Z,32.50
2022-07-28T15:08:51.181Z,32.40
2022-07-28T15:12:13.168Z,32.40
2022-07-28T15:15:35.196Z,32.40
2022-07-28T15:18:57.204Z,32.20
2022-07-28T15:22:19.243Z,32.20
2022-07-28T15:25:42.830Z,32.30
2022-07-28T15:29:05.451Z,32.40
2022-07-28T15:32:28.403Z,32.60
2022-07-28T15:35:58.549Z,32.90
2022-07-28T15:39:23.492Z,32.80
2022-07-28T15:42:45.564Z,33.20
2022-07-28T15:46:10.459Z,33.70
2022-07-28T15:49:32.648Z,33.60
2022-07-28T15:52:54.654Z,33.50
2022-07-28T15:56:16.684Z,33.60
2022-07-28T15:59:49.670Z,33.60
2022-07-28T16:03:12.872Z,33.50
2022-07-28T16:06:53.769Z,32.60
2022-07-28T16:10:15.883Z,32.40
2022-07-28T16:13:41.587Z,32.20
2022-07-28T16:17:03.982Z,31.90
2022-07-28T16:20:26.151Z,32.10
2022-07-28T16:23:48.438Z,32.10
2022-07-28T16:27:10.686Z,32.10
2022-07-28T16:30:35.979Z,32.10
2022-07-28T16:33:57.999Z,31.90
2022-07-28T16:37:20.306Z,31.80
2022-07-28T16:40:42.296Z,32.00
2022-07-28T16:44:04.655Z,32.30
2022-07-28T16:47:26.674Z,32.50
2022-07-28T16:50:48.685Z,32.60
2022-07-28T16:54:11.951Z,32.30
2022-07-28T16:57:34.147Z,32.40
2022-07-28T17:00:56.358Z,32.60
2022-07-28T17:04:21.440Z,33.00
2022-07-28T17:07:46.047Z,33.00
2022-07-28T17:11:08.382Z,32.60
2022-07-28T17:14:30.344Z,32.30
2022-07-28T17:17:53.270Z,32.00
2022-07-28T17:21:15.335Z,31.80
2022-07-28T17:24:37.386Z,31.60
2022-07-28T17:27:59.568Z,31.40
2022-07-28T17:31:21.925Z,31.20
2022-07-28T17:34:44.153Z,31.00
2022-07-28T17:38:08.495Z,30.70
2022-07-28T17:41:30.557Z,30.40
2022-07-28T17:44:56.122Z,30.20
2022-07-28T17:48:18.739Z,30.00
2022-07-28T17:51:41.766Z,29.80
2022-07-28T17:55:23.513Z,29.80
2022-07-28T17:58:46.247Z,29.70
2022-07-28T18:02:08.254Z,29.50
2022-07-28T18:05:32.570Z,29.40
2022-07-28T18:08:54.939Z,29.30
2022-07-28T18:12:17.371Z,29.20
2022-07-28T18:15:40.274Z,29.10
2022-07-28T18:19:03.346Z,29.00
2022-07-28T18:22:27.898Z,28.80
2022-07-28T18:25:50.194Z,28.80
2022-07-28T18:29:12.710Z,28.70
2022-07-28T18:32:34.750Z,28.70
2022-07-28T18:35:56.961Z,28.50
2022-07-28T18:39:19.136Z,28.40
2022-07-28T18:42:41.780Z,28.30
2022-07-28T18:46:03.957Z,28.20
2022-07-28T18:49:26.133Z,28.10
2022-07-28T18:52:48.944Z,28.00
2022-07-28T18:56:11.036Z,27.90
2022-07-28T18:59:33.131Z,27.90
2022-07-28T19:02:55.371Z,27.80
2022-07-28T19:06:17.446Z,27.80
2022-07-28T19:09:39.987Z,27.70
2022-07-28T19:13:03.574Z,27.60
2022-07-28T19:16:27.163Z,27.50
2022-07-28T19:19:49.752Z,27.50
2022-07-28T19:23:11.990Z,27.40
2022-07-28T19:26:35.337Z,27.30
2022-07-28T19:29:57.667Z,27.30
2022-07-28T19:33:24.284Z,27.20
2022-07-28T19:36:47.192Z,27.20
2022-07-28T19:40:10.640Z,27.30
2022-07-28T19:43:33.046Z,27.30
2022-07-28T19:46:56.438Z,27.30
2022-07-28T19:50:18.583Z,27.20
2022-07-28T19:53:41.096Z,27.20
2022-07-28T19:57:03.205Z,27.00
2022-07-28T20:00:34.332Z,26.80
2022-07-28T20:04:03.512Z,26.70
2022-07-28T20:07:26.859Z,26.50
2022-07-28T20:10:49.454Z,26.40
2022-07-28T20:14:11.519Z,26.40
2022-07-28T20:17:39.086Z,26.40
2022-07-28T20:21:02.859Z,26.40
2022-07-28T20:24:24.943Z,26.40
2022-07-28T20:27:46.977Z,26.40
2022-07-28T20:31:13.589Z,26.30
2022-07-28T20:34:38.633Z,26.30
2022-07-28T20:38:01.575Z,26.20
2022-07-28T20:41:23.566Z,26.10
2022-07-28T20:44:45.813Z,26.10
2022-07-28T20:48:07.916Z,26.00
2022-07-28T20:51:36.537Z,26.00
2022-07-28T20:54:58.676Z,25.90
2022-07-28T20:58:20.731Z,25.90
2022-07-28T21:01:42.961Z,25.80
2022-07-28T21:05:05.394Z,25.80
2022-07-28T21:08:28.486Z,25.80
2022-07-28T21:11:50.613Z,25.80
2022-07-28T21:15:12.637Z,25.80
2022-07-28T21:18:34.769Z,25.70
2022-07-28T21:21:56.792Z,25.60
2022-07-28T21:25:19.490Z,25.60
2022-07-28T21:29:00.409Z,25.60
2022-07-28T21:32:22.377Z,25.50
2022-07-28T21:35:44.392Z,25.60
2022-07-28T21:39:06.511Z,25.80
2022-07-28T21:42:28.517Z,25.90
2022-07-28T21:45:50.646Z,25.90
2022-07-28T21:49:12.953Z,26.00
2022-07-28T21:52:37.112Z,26.10
2022-07-28T21:55:59.173Z,26.20
2022-07-28T21:59:21.196Z,26.20
2022-07-28T22:02:43.215Z,26.30
2022-07-28T22:06:06.956Z,26.60
2022-07-28T22:09:31.832Z,26.40
2022-07-28T22:13:00.338Z,25.80
2022-07-28T22:16:22.351Z,25.10
2022-07-28T22:19:44.409Z,24.30
2022-07-28T22:23:11.583Z,23.70
2022-07-28T22:26:48.872Z,22.90
2022-07-28T22:30:10.919Z,22.50
2022-07-28T22:33:33.004Z,22.30
2022-07-28T22:36:55.177Z,21.90
2022-07-28T22:40:17.718Z,21.50
2022-07-28T22:43:39.731Z,21.20
2022-07-28T22:47:02.154Z,20.90
2022-07-28T22:50:24.197Z,20.50
2022-07-28T22:53:46.231Z,20.20
2022-07-28T22:57:08.321Z,19.90
2022-07-28T23:00:30.466Z,19.60
2022-07-28T23:03:52.701Z,19.50
2022-07-28T23:07:15.658Z,19.40
2022-07-28T23:10:38.198Z,19.50
2022-07-28T23:14:00.325Z,19.60
2022-07-28T23:17:22.423Z,19.50
2022-07-28T23:20:45.174Z,19.60
2022-07-28T23:24:07.596Z,19.70
2022-07-28T23:27:29.725Z,19.70
2022-07-28T23:30:52.186Z,19.60
2022-07-28T23:34:14.609Z,19.60
2022-07-28T23:37:36.923Z,19.60
2022-07-28T23:41:39.461Z,19.60
2022-07-28T23:45:04.403Z,19.60
2022-07-28T23:48:26.520Z,19.70
2022-07-28T23:51:49.038Z,19.60
2022-07-28T23:55:11.746Z,19.50
2022-07-28T23:58:34.761Z,19.60
